createdAt,value
2018-05-06T00:02:14.052Z,43.69
2018-05-06T00:04:41.437Z,43.34
2018-05-06T00:07:08.823Z,43.36
2018-05-06T00:09:36.204Z,42.55
2018-05-06T00:12:03.575Z,43.53
2018-05-06T00:14:30.959Z,43.38
2018-05-06T00:16:58.339Z,42.99
2018-05-06T00:19:25.734Z,42.98
2018-05-06T00:21:53.150Z,42.85
2018-05-06T00:24:20.535Z,41.93
2018-05-06T00:26:47.924Z,43.01
2018-05-06T00:29:15.311Z,43.32
2018-05-06T00:31:42.702Z,43.15
2018-05-06T00:34:10.080Z,43.86
2018-05-06T00:36:37.459Z,43.76
2018-05-06T00:39:04.855Z,42.90
2018-05-06T00:41:32.236Z,42.87
2018-05-06T00:43:59.636Z,43.47
2018-05-06T00:46:27.112Z,43.54
2018-05-06T00:48:54.420Z,43.26
2018-05-06T00:51:21.791Z,43.38
2018-05-06T00:53:49.192Z,43.43
2018-05-06T00:56:16.573Z,43.42
2018-05-06T00:58:43.955Z,43.53
2018-05-06T01:01:11.340Z,42.86
2018-05-06T01:03:39.029Z,43.30
2018-05-06T01:06:06.664Z,43.85
2018-05-06T01:08:34.324Z,43.49
2018-05-06T01:11:01.939Z,43.51
2018-05-06T01:13:29.461Z,43.21
2018-05-06T01:15:56.852Z,43.69
2018-05-06T01:18:24.274Z,43.75
2018-05-06T01:20:51.646Z,43.81
2018-05-06T01:23:19.029Z,43.80
2018-05-06T01:25:46.404Z,43.91
2018-05-06T01:28:13.806Z,43.69
2018-05-06T01:30:41.195Z,42.89
2018-05-06T01:33:08.760Z,42.76
2018-05-06T01:35:36.150Z,42.65
2018-05-06T01:38:03.540Z,43.00
2018-05-06T01:40:30.927Z,43.21
2018-05-06T01:42:58.327Z,43.05
2018-05-06T01:48:01.703Z,42.76
2018-05-06T01:50:29.096Z,43.18
2018-05-06T01:52:56.492Z,43.49
2018-05-06T01:55:23.874Z,43.08
2018-05-06T01:57:51.274Z,43.78
2018-05-06T02:00:18.652Z,44.18
2018-05-06T02:02:46.034Z,43.70
2018-05-06T02:05:13.460Z,44.43
2018-05-06T02:07:40.843Z,43.99
2018-05-06T02:10:08.241Z,44.80
2018-05-06T02:12:35.731Z,44.48
2018-05-06T02:15:03.134Z,44.41
2018-05-06T02:17:30.530Z,44.32
2018-05-06T02:19:57.907Z,43.90
2018-05-06T02:22:25.283Z,43.69
2018-05-06T02:24:52.683Z,42.98
2018-05-06T02:27:20.066Z,42.88
2018-05-06T02:29:47.460Z,42.58
2018-05-06T02:32:14.850Z,42.75
2018-05-06T02:34:42.238Z,42.66
2018-05-06T02:37:09.619Z,42.01
2018-05-06T02:39:37.012Z,42.39
2018-05-06T02:42:04.395Z,42.67
2018-05-06T02:44:31.811Z,42.63
2018-05-06T02:46:59.196Z,41.99
2018-05-06T02:49:26.595Z,42.75
2018-05-06T02:51:53.979Z,42.07
2018-05-06T02:54:21.368Z,43.08
2018-05-06T02:56:48.764Z,43.29
2018-05-06T02:59:16.147Z,42.93
2018-05-06T03:01:43.529Z,42.99
2018-05-06T03:04:10.918Z,42.25
2018-05-06T03:06:38.304Z,42.26
2018-05-06T03:09:05.700Z,42.62
2018-05-06T03:11:33.074Z,42.58
2018-05-06T03:14:00.471Z,42.89
2018-05-06T03:16:27.865Z,42.88
2018-05-06T03:18:55.251Z,43.18
2018-05-06T03:21:22.656Z,43.20
2018-05-06T03:23:50.047Z,43.06
2018-05-06T03:26:17.440Z,43.20
2018-05-06T03:28:44.838Z,43.73
2018-05-06T03:31:12.223Z,43.47
2018-05-06T03:33:39.625Z,42.94
2018-05-06T03:36:07.019Z,43.09
2018-05-06T03:38:34.408Z,43.04
2018-05-06T03:41:01.791Z,42.95
2018-05-06T03:43:29.196Z,43.81
2018-05-06T03:45:56.575Z,44.36
2018-05-06T03:48:23.989Z,44.47
2018-05-06T03:50:51.371Z,44.40
2018-05-06T03:53:18.748Z,44.80
2018-05-06T03:55:47.687Z,44.61
2018-05-06T03:58:26.870Z,44.34
2018-05-06T04:00:54.263Z,43.94
2018-05-06T04:03:21.643Z,44.08
2018-05-06T04:05:49.057Z,43.74
2018-05-06T04:08:16.488Z,43.20
2018-05-06T04:10:43.991Z,43.28
2018-05-06T04:13:11.350Z,42.92
2018-05-06T04:15:38.759Z,42.89
2018-05-06T04:18:06.146Z,43.31
2018-05-06T04:20:33.539Z,43.44
2018-05-06T04:23:00.923Z,43.40
2018-05-06T04:25:28.326Z,43.62
2018-05-06T04:27:55.703Z,43.50
2018-05-06T04:30:23.099Z,43.26
2018-05-06T04:32:50.487Z,42.86
2018-05-06T04:35:17.885Z,42.83
2018-05-06T04:37:45.357Z,42.92
2018-05-06T04:40:12.816Z,42.74
2018-05-06T04:42:40.123Z,43.19
2018-05-06T04:45:07.615Z,43.26
2018-05-06T04:50:13.194Z,43.23
2018-05-06T04:52:40.551Z,43.12
2018-05-06T04:55:07.944Z,42.48
2018-05-06T04:57:35.323Z,42.43
2018-05-06T05:00:02.719Z,42.68
2018-05-06T05:02:30.092Z,42.64
2018-05-06T05:04:57.483Z,42.96
2018-05-06T05:07:24.854Z,42.43
2018-05-06T05:09:53.019Z,42.23
2018-05-06T05:12:20.448Z,42.51
2018-05-06T05:14:47.842Z,42.18
2018-05-06T05:17:15.232Z,42.01
2018-05-06T05:19:42.627Z,41.74
2018-05-06T05:22:10.021Z,41.76
2018-05-06T05:24:37.410Z,41.94
2018-05-06T05:27:05.210Z,42.35
2018-05-06T05:29:32.607Z,41.62
2018-05-06T05:31:59.989Z,41.34
2018-05-06T05:34:27.470Z,40.83
2018-05-06T05:36:54.767Z,40.88
2018-05-06T05:39:22.146Z,41.37
2018-05-06T05:41:49.523Z,40.79
2018-05-06T05:44:16.911Z,41.12
2018-05-06T05:46:44.457Z,41.23
2018-05-06T05:49:11.847Z,41.36
2018-05-06T05:51:39.242Z,40.90
2018-05-06T05:54:06.644Z,40.70
2018-05-06T05:56:34.036Z,40.58
2018-05-06T05:59:01.527Z,40.31
2018-05-06T06:01:28.961Z,39.98
2018-05-06T06:03:56.312Z,39.93
2018-05-06T06:06:23.711Z,39.91
2018-05-06T06:08:51.603Z,39.94
2018-05-06T06:11:18.988Z,39.77
2018-05-06T06:13:47.055Z,39.43
2018-05-06T06:16:14.431Z,39.62
2018-05-06T06:18:41.817Z,39.26
2018-05-06T06:21:09.279Z,38.67
2018-05-06T06:23:36.655Z,38.40
2018-05-06T06:26:04.071Z,38.49
2018-05-06T06:28:31.461Z,38.07
2018-05-06T06:30:58.847Z,38.25
2018-05-06T06:33:26.249Z,37.87
2018-05-06T06:35:53.728Z,37.71
2018-05-06T06:38:21.287Z,37.72
2018-05-06T06:40:48.700Z,37.47
2018-05-06T06:43:16.222Z,37.50
2018-05-06T06:45:43.616Z,37.49
2018-05-06T06:48:11.003Z,37.41
2018-05-06T06:50:38.396Z,37.57
2018-05-06T06:53:05.775Z,37.14
2018-05-06T06:55:33.162Z,36.59
2018-05-06T06:58:00.550Z,36.58
2018-05-06T07:00:27.956Z,36.22
2018-05-06T07:02:55.339Z,36.27
2018-05-06T07:05:22.717Z,35.69
2018-05-06T07:07:50.103Z,35.32
2018-05-06T07:10:19.716Z,35.55
2018-05-06T07:12:47.305Z,34.85
2018-05-06T07:15:14.712Z,34.80
2018-05-06T07:17:42.100Z,34.94
2018-05-06T07:20:09.490Z,34.77
2018-05-06T07:22:36.887Z,34.78
2018-05-06T07:25:04.291Z,34.63
2018-05-06T07:27:31.715Z,34.41
2018-05-06T07:29:59.109Z,34.82
2018-05-06T07:32:26.492Z,34.66
2018-05-06T07:34:53.884Z,34.06
2018-05-06T07:37:21.298Z,34.07
2018-05-06T07:39:48.683Z,34.21
2018-05-06T07:42:16.072Z,34.20
2018-05-06T07:44:43.451Z,34.22
2018-05-06T07:47:10.847Z,34.39
2018-05-06T07:49:38.231Z,34.47
2018-05-06T07:52:05.652Z,34.39
2018-05-06T07:54:33.027Z,34.19
2018-05-06T07:57:00.443Z,33.81
2018-05-06T07:59:27.827Z,33.54
2018-05-06T08:01:55.231Z,33.93
2018-05-06T08:04:22.651Z,33.87
2018-05-06T08:06:50.008Z,33.29
2018-05-06T08:09:17.723Z,33.44
2018-05-06T08:11:45.165Z,33.20
2018-05-06T08:14:12.548Z,33.57
2018-05-06T08:16:39.996Z,33.57
2018-05-06T08:19:07.390Z,33.54
2018-05-06T08:21:34.781Z,33.18
2018-05-06T08:24:02.157Z,32.82
2018-05-06T08:26:29.552Z,33.17
2018-05-06T08:28:56.945Z,32.96
2018-05-06T08:31:24.334Z,32.82
2018-05-06T08:33:51.724Z,32.99
2018-05-06T08:36:19.131Z,32.68
2018-05-06T08:38:46.515Z,32.36
2018-05-06T08:41:13.923Z,32.43
2018-05-06T08:43:41.319Z,32.40
2018-05-06T08:46:08.699Z,32.75
2018-05-06T08:48:36.097Z,31.89
2018-05-06T08:51:03.484Z,32.15
2018-05-06T08:53:30.868Z,32.04
2018-05-06T08:55:58.258Z,31.58
2018-05-06T08:58:25.865Z,31.97
2018-05-06T09:00:53.239Z,32.35
2018-05-06T09:03:20.638Z,32.46
2018-05-06T09:05:48.072Z,32.04
2018-05-06T09:08:15.444Z,31.21
2018-05-06T09:10:42.828Z,31.06
2018-05-06T09:13:10.232Z,31.31
2018-05-06T09:15:37.614Z,31.52
2018-05-06T09:18:05.000Z,31.16
2018-05-06T09:20:32.388Z,31.23
2018-05-06T09:22:59.786Z,30.64
2018-05-06T09:25:27.248Z,30.37
2018-05-06T09:27:54.556Z,30.63
2018-05-06T09:30:21.944Z,30.30
2018-05-06T09:32:49.338Z,29.84
2018-05-06T09:35:16.727Z,30.92
2018-05-06T09:37:44.137Z,29.93
2018-05-06T09:40:11.555Z,29.02
2018-05-06T09:42:38.964Z,29.13
2018-05-06T09:45:06.351Z,28.64
2018-05-06T09:47:33.846Z,28.98
2018-05-06T09:50:01.126Z,29.32
2018-05-06T09:52:28.535Z,27.58
2018-05-06T09:54:55.919Z,36.03
2018-05-06T09:57:23.317Z,32.27
2018-05-06T09:59:50.693Z,33.37
2018-05-06T10:02:22.546Z,35.33
2018-05-06T10:04:49.911Z,35.05
2018-05-06T10:07:18.273Z,34.36
2018-05-06T10:09:45.657Z,32.69
2018-05-06T10:12:13.060Z,33.20
2018-05-06T10:14:40.439Z,34.39
2018-05-06T10:17:07.965Z,33.46
2018-05-06T10:19:35.335Z,34.38
2018-05-06T10:22:02.834Z,34.28
2018-05-06T10:24:30.233Z,32.26
2018-05-06T10:26:57.615Z,31.36
2018-05-06T10:29:24.993Z,30.82
2018-05-06T10:31:52.390Z,32.15
2018-05-06T10:34:19.771Z,33.48
2018-05-06T10:36:47.166Z,31.53
2018-05-06T10:39:14.561Z,33.17
2018-05-06T10:41:41.951Z,31.51
2018-05-06T10:44:09.364Z,33.09
2018-05-06T10:46:36.778Z,31.21
2018-05-06T10:49:04.207Z,29.12
2018-05-06T10:51:31.552Z,29.54
2018-05-06T10:53:58.939Z,31.88
2018-05-06T10:56:26.315Z,31.36
2018-05-06T10:58:53.708Z,29.82
2018-05-06T11:01:21.080Z,28.15
2018-05-06T11:03:48.498Z,28.43
2018-05-06T11:06:15.875Z,30.54
2018-05-06T11:08:43.267Z,30.24
2018-05-06T11:11:10.643Z,29.93
2018-05-06T11:13:38.035Z,29.09
2018-05-06T11:16:05.430Z,30.09
2018-05-06T11:18:32.809Z,29.38
2018-05-06T11:21:00.182Z,27.72
2018-05-06T11:23:27.608Z,27.89
2018-05-06T11:25:54.993Z,28.50
2018-05-06T11:28:22.387Z,28.85
2018-05-06T11:30:49.763Z,26.83
2018-05-06T11:33:17.156Z,28.35
2018-05-06T11:35:44.539Z,25.42
2018-05-06T11:38:12.000Z,27.23
2018-05-06T11:40:39.353Z,27.55
2018-05-06T11:43:07.719Z,26.77
2018-05-06T11:45:35.103Z,24.63
2018-05-06T11:48:02.577Z,25.53
2018-05-06T11:50:29.946Z,23.19
2018-05-06T11:52:57.273Z,23.28
2018-05-06T11:55:24.876Z,21.51
2018-05-06T11:57:52.259Z,20.02
2018-05-06T12:00:19.705Z,20.31
2018-05-06T12:02:47.165Z,19.68
2018-05-06T12:05:14.548Z,19.29
2018-05-06T12:07:41.925Z,18.75
2018-05-06T12:10:09.310Z,18.15
2018-05-06T12:12:36.715Z,17.74
2018-05-06T12:15:04.133Z,17.69
2018-05-06T12:17:31.499Z,17.26
2018-05-06T12:19:58.890Z,16.30
2018-05-06T12:22:26.277Z,16.08
2018-05-06T12:24:53.671Z,16.29
2018-05-06T12:27:21.072Z,15.37
2018-05-06T12:29:48.452Z,14.66
2018-05-06T12:32:15.833Z,14.24
2018-05-06T12:34:43.227Z,14.38
2018-05-06T12:37:10.611Z,13.77
2018-05-06T12:39:38.008Z,13.79
2018-05-06T12:42:05.380Z,13.50
2018-05-06T12:44:32.794Z,12.68
2018-05-06T12:47:00.192Z,12.37
2018-05-06T12:49:27.599Z,12.15
2018-05-06T12:51:54.966Z,12.50
2018-05-06T12:54:22.347Z,11.75
2018-05-06T12:56:49.731Z,11.99
2018-05-06T12:59:17.192Z,11.84
2018-05-06T13:01:44.575Z,11.05
2018-05-06T13:04:11.962Z,11.36
2018-05-06T13:06:39.346Z,11.40
2018-05-06T13:09:06.748Z,12.55
2018-05-06T13:11:34.135Z,10.88
2018-05-06T13:14:01.512Z,10.36
2018-05-06T13:16:28.899Z,10.52
2018-05-06T13:18:56.293Z,10.68
2018-05-06T13:21:23.675Z,10.64
2018-05-06T13:23:51.070Z,10.67
2018-05-06T13:26:19.208Z,10.27
2018-05-06T13:28:46.582Z,10.48
2018-05-06T13:31:13.970Z,10.32
2018-05-06T13:33:41.350Z,11.00
2018-05-06T13:36:08.744Z,10.68
2018-05-06T13:38:36.122Z,9.94
2018-05-06T13:41:03.530Z,10.00
2018-05-06T13:43:30.903Z,10.52
2018-05-06T13:45:58.298Z,9.87
2018-05-06T13:48:26.520Z,9.71
2018-05-06T13:50:53.891Z,10.87
2018-05-06T13:53:21.283Z,9.76
2018-05-06T13:55:49.662Z,9.32
2018-05-06T13:58:17.051Z,9.89
2018-05-06T14:00:44.436Z,10.58
2018-05-06T14:03:11.823Z,9.77
2018-05-06T14:05:39.242Z,9.75
2018-05-06T14:08:06.620Z,10.46
2018-05-06T14:10:34.013Z,9.61
2018-05-06T14:13:01.386Z,9.25
2018-05-06T14:15:28.778Z,9.47
2018-05-06T14:17:56.148Z,9.32
2018-05-06T14:20:23.546Z,9.82
2018-05-06T14:22:50.915Z,9.59
2018-05-06T14:25:18.299Z,10.29
2018-05-06T14:27:45.684Z,10.25
2018-05-06T14:30:13.068Z,9.41
2018-05-06T14:32:40.442Z,9.80
2018-05-06T14:35:07.815Z,9.44
2018-05-06T14:37:35.203Z,9.25
2018-05-06T14:40:02.592Z,9.07
2018-05-06T14:42:29.971Z,9.09
2018-05-06T14:44:57.370Z,8.68
2018-05-06T14:50:24.258Z,10.09
2018-05-06T14:52:51.631Z,9.10
2018-05-06T14:55:19.565Z,10.00
2018-05-06T14:57:47.004Z,9.80
2018-05-06T15:00:14.426Z,9.13
2018-05-06T15:02:41.802Z,9.79
2018-05-06T15:05:09.212Z,9.36
2018-05-06T15:07:36.596Z,9.55
2018-05-06T15:10:03.971Z,9.47
2018-05-06T15:12:31.358Z,9.73
2018-05-06T15:14:58.739Z,9.89
2018-05-06T15:17:26.126Z,9.75
2018-05-06T15:19:53.496Z,9.82
2018-05-06T15:22:20.881Z,9.84
2018-05-06T15:24:48.259Z,9.51
2018-05-06T15:27:15.641Z,9.77
2018-05-06T15:29:43.026Z,10.18
2018-05-06T15:32:10.414Z,9.71
2018-05-06T15:34:37.795Z,9.88
2018-05-06T15:37:05.200Z,9.68
2018-05-06T15:39:32.576Z,10.17
2018-05-06T15:42:00.115Z,9.89
2018-05-06T15:44:27.491Z,9.55
2018-05-06T15:46:54.875Z,9.52
2018-05-06T15:49:22.257Z,9.85
2018-05-06T15:51:49.832Z,9.89
2018-05-06T15:54:17.223Z,10.05
2018-05-06T15:56:44.611Z,9.90
2018-05-06T15:59:11.990Z,10.07
2018-05-06T16:01:39.385Z,10.35
2018-05-06T16:04:14.561Z,9.87
2018-05-06T16:06:41.958Z,9.68
2018-05-06T16:09:09.319Z,10.00
2018-05-06T16:11:36.718Z,10.12
2018-05-06T16:14:04.102Z,10.65
2018-05-06T16:16:31.497Z,10.59
2018-05-06T16:18:58.874Z,10.91
2018-05-06T16:21:26.292Z,11.63
2018-05-06T16:23:53.683Z,12.60
2018-05-06T16:26:21.074Z,13.00
2018-05-06T16:28:48.517Z,13.56
2018-05-06T16:31:15.903Z,13.97
2018-05-06T16:33:43.291Z,14.38
2018-05-06T16:36:10.690Z,15.33
2018-05-06T16:38:38.071Z,14.81
2018-05-06T16:41:05.467Z,15.26
2018-05-06T16:43:32.842Z,15.75
2018-05-06T16:46:00.225Z,15.75
2018-05-06T16:48:28.199Z,16.12
2018-05-06T16:50:55.589Z,16.27
2018-05-06T16:53:22.970Z,16.19
2018-05-06T16:55:50.381Z,16.66
2018-05-06T16:58:17.897Z,16.85
2018-05-06T17:00:45.272Z,16.76
2018-05-06T17:03:12.663Z,16.87
2018-05-06T17:05:40.074Z,17.92
2018-05-06T17:08:07.466Z,17.48
2018-05-06T17:10:35.771Z,17.90
2018-05-06T17:13:03.161Z,17.80
2018-05-06T17:15:30.775Z,18.31
2018-05-06T17:17:58.165Z,17.98
2018-05-06T17:20:25.538Z,18.38
2018-05-06T17:22:53.144Z,18.74
2018-05-06T17:25:20.543Z,18.71
2018-05-06T17:27:47.957Z,19.16
2018-05-06T17:30:15.330Z,19.47
2018-05-06T17:32:42.734Z,19.49
2018-05-06T17:35:10.106Z,18.84
2018-05-06T17:37:37.529Z,19.38
2018-05-06T17:40:04.902Z,19.18
2018-05-06T17:42:32.286Z,19.62
2018-05-06T17:44:59.667Z,19.89
2018-05-06T17:47:27.067Z,20.29
2018-05-06T17:49:54.449Z,20.18
2018-05-06T17:52:21.833Z,20.25
2018-05-06T17:54:49.223Z,20.47
2018-05-06T17:57:16.621Z,20.39
2018-05-06T17:59:44.087Z,20.79
2018-05-06T18:02:11.470Z,20.71
2018-05-06T18:04:38.865Z,21.05
2018-05-06T18:07:06.251Z,20.80
2018-05-06T18:09:33.630Z,20.54
2018-05-06T18:12:01.020Z,20.62
2018-05-06T18:14:28.485Z,21.49
2018-05-06T18:16:55.911Z,21.43
2018-05-06T18:19:23.314Z,21.39
2018-05-06T18:21:50.701Z,21.53
2018-05-06T18:24:18.079Z,22.10
2018-05-06T18:26:45.483Z,22.27
2018-05-06T18:29:12.857Z,22.33
2018-05-06T18:31:40.249Z,22.36
2018-05-06T18:34:07.686Z,22.03
2018-05-06T18:36:35.067Z,22.64
2018-05-06T18:39:02.446Z,22.82
2018-05-06T18:41:29.846Z,22.62
2018-05-06T18:43:57.305Z,23.19
2018-05-06T18:46:24.672Z,22.98
2018-05-06T18:48:52.058Z,23.13
2018-05-06T18:51:19.668Z,23.29
2018-05-06T18:53:47.058Z,22.96
2018-05-06T18:56:14.435Z,23.56
2018-05-06T18:58:41.836Z,23.78
2018-05-06T19:01:09.219Z,24.03
2018-05-06T19:03:36.711Z,24.39
2018-05-06T19:06:04.090Z,24.32
2018-05-06T19:08:31.583Z,24.36
2018-05-06T19:10:58.908Z,24.12
2018-05-06T19:13:26.296Z,24.41
2018-05-06T19:15:54.028Z,24.82
2018-05-06T19:18:21.813Z,24.87
2018-05-06T19:20:49.793Z,25.16
2018-05-06T19:23:18.471Z,25.24
2018-05-06T19:25:46.032Z,25.67
2018-05-06T19:28:13.648Z,25.43
2018-05-06T19:30:41.227Z,25.46
2018-05-06T19:33:08.932Z,25.75
2018-05-06T19:35:36.617Z,25.57
2018-05-06T19:38:04.327Z,25.86
2018-05-06T19:40:31.912Z,25.92
2018-05-06T19:42:59.580Z,25.87
2018-05-06T19:45:27.184Z,26.08
2018-05-06T19:47:54.864Z,25.87
2018-05-06T19:50:22.588Z,25.74
2018-05-06T19:52:50.997Z,26.13
2018-05-06T19:55:18.442Z,26.11
2018-05-06T19:57:45.834Z,26.31
2018-05-06T20:00:13.218Z,26.15
2018-05-06T20:02:40.603Z,26.14
2018-05-06T20:05:07.980Z,26.12
2018-05-06T20:07:35.362Z,26.42
2018-05-06T20:10:02.765Z,26.56
2018-05-06T20:12:30.153Z,26.86
2018-05-06T20:14:57.522Z,26.56
2018-05-06T20:17:25.013Z,26.84
2018-05-06T20:19:52.375Z,27.14
2018-05-06T20:22:19.841Z,27.24
2018-05-06T20:24:47.238Z,27.38
2018-05-06T20:27:14.715Z,27.29
2018-05-06T20:29:42.104Z,26.99
2018-05-06T20:32:09.517Z,27.62
2018-05-06T20:34:36.906Z,27.39
2018-05-06T20:37:04.662Z,27.80
2018-05-06T20:39:32.060Z,27.55
2018-05-06T20:41:59.455Z,27.45
2018-05-06T20:44:26.849Z,28.03
2018-05-06T20:46:54.236Z,27.89
2018-05-06T20:49:21.612Z,28.13
2018-05-06T20:51:49.019Z,27.99
2018-05-06T20:54:16.410Z,28.07
2018-05-06T20:56:43.961Z,28.07
2018-05-06T20:59:11.626Z,27.97
2018-05-06T21:01:38.999Z,29.27
2018-05-06T21:04:06.416Z,29.30
2018-05-06T21:06:33.799Z,29.44
2018-05-06T21:09:01.199Z,29.67
2018-05-06T21:11:28.753Z,29.56
2018-05-06T21:13:56.180Z,29.47
2018-05-06T21:16:24.464Z,29.28
2018-05-06T21:18:51.859Z,29.59
2018-05-06T21:21:19.275Z,29.18
2018-05-06T21:23:46.673Z,29.43
2018-05-06T21:26:14.057Z,29.29
2018-05-06T21:28:41.452Z,29.21
2018-05-06T21:31:08.840Z,29.10
2018-05-06T21:33:36.231Z,29.91
2018-05-06T21:36:03.677Z,29.68
2018-05-06T21:38:31.020Z,29.58
2018-05-06T21:40:58.404Z,29.41
2018-05-06T21:43:25.879Z,29.62
2018-05-06T21:45:53.175Z,29.68
2018-05-06T21:48:21.396Z,29.50
2018-05-06T21:50:48.780Z,29.75
2018-05-06T21:53:16.180Z,29.76
2018-05-06T21:55:43.589Z,30.12
2018-05-06T21:58:10.976Z,30.79
2018-05-06T22:00:38.362Z,31.00
2018-05-06T22:03:05.763Z,30.97
2018-05-06T22:05:33.147Z,31.22
2018-05-06T22:08:00.564Z,31.39
2018-05-06T22:10:27.951Z,31.90
2018-05-06T22:12:55.349Z,31.83
2018-05-06T22:15:22.739Z,32.33
2018-05-06T22:17:50.228Z,32.50
2018-05-06T22:20:17.627Z,32.76
2018-05-06T22:22:45.023Z,31.73
2018-05-06T22:25:12.479Z,32.49
2018-05-06T22:27:39.894Z,33.03
2018-05-06T22:30:07.274Z,33.04
2018-05-06T22:32:34.668Z,32.99
2018-05-06T22:35:02.154Z,32.58
2018-05-06T22:37:29.533Z,33.10
2018-05-06T22:39:56.931Z,33.20
2018-05-06T22:42:24.461Z,32.65
2018-05-06T22:44:51.861Z,33.06
2018-05-06T22:47:19.411Z,33.03
2018-05-06T22:49:46.813Z,33.33
2018-05-06T22:52:14.188Z,33.48
2018-05-06T22:54:41.572Z,33.58
2018-05-06T22:57:08.951Z,33.59
2018-05-06T22:59:36.385Z,32.66
2018-05-06T23:02:03.739Z,33.41
2018-05-06T23:04:31.171Z,33.83
2018-05-06T23:06:58.557Z,33.85
2018-05-06T23:09:25.953Z,34.15
2018-05-06T23:11:53.409Z,34.54
2018-05-06T23:14:20.799Z,34.55
2018-05-06T23:16:48.192Z,34.78
2018-05-06T23:19:15.595Z,34.96
2018-05-06T23:21:42.983Z,35.20
2018-05-06T23:24:10.413Z,35.12
2018-05-06T23:26:37.891Z,35.06
2018-05-06T23:29:05.277Z,35.81
2018-05-06T23:31:32.669Z,35.50
2018-05-06T23:34:00.084Z,35.63
2018-05-06T23:36:27.464Z,35.38
2018-05-06T23:38:56.021Z,35.92
2018-05-06T23:41:23.415Z,35.43
2018-05-06T23:43:50.830Z,35.58
2018-05-06T23:46:18.228Z,36.00
2018-05-06T23:48:45.606Z,36.36
2018-05-06T23:51:13.002Z,36.07
2018-05-06T23:53:40.397Z,35.78
2018-05-06T23:56:07.785Z,36.25
2018-05-06T23:58:35.190Z,36.41
